createdAt,value
2019-01-06T00:00:41.298Z,-4.93
2019-01-06T00:03:40.614Z,-4.95
2019-01-06T00:06:28.909Z,-4.93
2019-01-06T00:09:19.546Z,-4.93
2019-01-06T00:12:08.939Z,-4.89
2019-01-06T00:15:10.934Z,-4.87
2019-01-06T00:18:00.238Z,-4.95
2019-01-06T00:20:49.089Z,-4.92
2019-01-06T00:23:38.037Z,-4.96
2019-01-06T00:26:42.649Z,-5.03
2019-01-06T00:29:47.775Z,-5.01
2019-01-06T00:32:40.454Z,-4.99
2019-01-06T00:35:51.166Z,-5.07
2019-01-06T00:41:58.698Z,-5.12
2019-01-06T00:44:50.579Z,-5.19
2019-01-06T00:47:39.570Z,-5.12
2019-01-06T00:50:30.790Z,-5.13
2019-01-06T00:53:25.648Z,-5.16
2019-01-06T00:56:18.794Z,-5.19
2019-01-06T00:59:09.176Z,-5.22
2019-01-06T01:02:02.412Z,-5.29
2019-01-06T01:04:53.362Z,-5.37
2019-01-06T01:07:45.427Z,-5.33
2019-01-06T01:10:43.725Z,-5.37
2019-01-06T01:13:36.115Z,-5.35
2019-01-06T01:16:39.376Z,-5.30
2019-01-06T01:19:28.550Z,-5.30
2019-01-06T01:22:17.539Z,-5.28
2019-01-06T01:25:38.176Z,-5.26
2019-01-06T01:28:34.549Z,-5.26
2019-01-06T01:31:20.883Z,-5.22
2019-01-06T01:34:07.796Z,-5.23
2019-01-06T01:37:15.923Z,-5.21
2019-01-06T01:40:18.461Z,-5.19
2019-01-06T01:43:18.475Z,-5.19
2019-01-06T01:46:27.474Z,-5.22
2019-01-06T01:49:17.230Z,-5.33
2019-01-06T01:52:08.751Z,-5.27
2019-01-06T01:54:58.923Z,-5.27
2019-01-06T01:58:00.801Z,-5.27
2019-01-06T02:01:07.533Z,-5.30
2019-01-06T02:04:12.951Z,-5.25
2019-01-06T02:07:21.340Z,-5.30
2019-01-06T02:10:10.146Z,-5.34
2019-01-06T02:12:59.287Z,-5.35
2019-01-06T02:15:49.524Z,-5.47
2019-01-06T02:18:38.504Z,-5.53
2019-01-06T02:21:27.426Z,-5.58
2019-01-06T02:24:19.732Z,-5.55
2019-01-06T02:27:22.090Z,-5.49
2019-01-06T02:30:24.531Z,-5.50
2019-01-06T02:33:13.589Z,-5.53
2019-01-06T02:36:14.346Z,-5.57
2019-01-06T02:39:10.478Z,-5.62
2019-01-06T02:42:18.766Z,-5.62
2019-01-06T02:45:04.941Z,-5.62
2019-01-06T02:47:53.541Z,-5.62
2019-01-06T02:50:43.796Z,-5.66
2019-01-06T02:53:32.726Z,-5.66
2019-01-06T02:56:22.329Z,-5.67
2019-01-06T02:59:15.314Z,-5.72
2019-01-06T03:02:04.382Z,-5.70
2019-01-06T03:04:57.762Z,-5.69
2019-01-06T03:07:57.057Z,-5.73
2019-01-06T03:10:46.086Z,-5.79
2019-01-06T03:13:54.607Z,-5.78
2019-01-06T03:16:40.498Z,-5.77
2019-01-06T03:19:33.727Z,-5.79
2019-01-06T03:22:39.258Z,-5.79
2019-01-06T03:25:35.576Z,-5.81
2019-01-06T03:28:28.619Z,-5.77
2019-01-06T03:31:17.534Z,-5.74
2019-01-06T03:34:13.890Z,-5.75
2019-01-06T03:37:02.711Z,-5.72
2019-01-06T03:40:07.471Z,-5.73
2019-01-06T03:42:57.703Z,-5.77
2019-01-06T03:45:50.237Z,-5.77
2019-01-06T03:48:40.550Z,-5.74
2019-01-06T03:51:29.626Z,-5.72
2019-01-06T03:54:18.775Z,-5.75
2019-01-06T03:57:10.806Z,-5.70
2019-01-06T04:00:01.766Z,-5.72
2019-01-06T04:02:51.131Z,-5.72
2019-01-06T04:05:56.599Z,-5.70
2019-01-06T04:08:45.547Z,-5.69
2019-01-06T04:11:34.523Z,-5.72
2019-01-06T04:14:23.381Z,-5.67
2019-01-06T04:17:12.453Z,-5.71
2019-01-06T04:20:01.371Z,-5.66
2019-01-06T04:22:50.277Z,-5.67
2019-01-06T04:25:38.973Z,-5.65
2019-01-06T04:28:47.566Z,-5.63
2019-01-06T04:31:37.765Z,-5.62
2019-01-06T04:34:26.318Z,-5.60
2019-01-06T04:37:34.989Z,-5.59
2019-01-06T04:40:33.978Z,-5.62
2019-01-06T04:43:17.505Z,-5.57
2019-01-06T04:46:07.729Z,-5.61
2019-01-06T04:48:57.296Z,-5.59
2019-01-06T04:51:45.995Z,-5.62
2019-01-06T04:54:35.125Z,-5.68
2019-01-06T04:57:24.330Z,-5.60
2019-01-06T05:00:13.246Z,-5.63
2019-01-06T05:03:08.809Z,-5.64
2019-01-06T05:05:54.233Z,-5.64
2019-01-06T05:08:47.914Z,-5.61
2019-01-06T05:11:41.081Z,-5.68
2019-01-06T05:14:46.538Z,-5.66
2019-01-06T05:17:35.423Z,-5.69
2019-01-06T05:20:26.998Z,-5.57
2019-01-06T05:23:23.401Z,-5.55
2019-01-06T05:26:22.610Z,-5.55
2019-01-06T05:29:12.829Z,-5.53
2019-01-06T05:32:03.069Z,-5.54
2019-01-06T05:34:53.253Z,-5.56
2019-01-06T05:37:52.575Z,-5.56
2019-01-06T05:40:41.434Z,-5.52
2019-01-06T05:43:34.830Z,-5.54
2019-01-06T05:46:23.660Z,-5.57
2019-01-06T05:49:13.967Z,-5.57
2019-01-06T05:52:02.681Z,-5.59
2019-01-06T05:54:51.769Z,-5.62
2019-01-06T05:57:44.944Z,-5.62
2019-01-06T06:00:35.245Z,-5.56
2019-01-06T06:03:26.594Z,-5.48
2019-01-06T06:06:15.767Z,-5.46
2019-01-06T06:09:10.703Z,-5.48
2019-01-06T06:12:13.319Z,-5.44
2019-01-06T06:15:02.301Z,-5.42
2019-01-06T06:17:51.558Z,-5.41
2019-01-06T06:20:33.143Z,-5.38
2019-01-06T06:23:30.980Z,-5.30
2019-01-06T06:26:27.208Z,-5.23
2019-01-06T06:29:16.118Z,-5.11
2019-01-06T06:32:05.281Z,-4.97
2019-01-06T06:35:04.918Z,-4.94
2019-01-06T06:37:57.857Z,-4.82
2019-01-06T06:40:49.991Z,-4.70
2019-01-06T06:43:46.369Z,-4.53
2019-01-06T06:46:36.796Z,-4.42
2019-01-06T06:49:25.684Z,-4.27
2019-01-06T06:52:14.729Z,-4.10
2019-01-06T06:55:03.857Z,-4.00
2019-01-06T06:58:45.797Z,-3.87
2019-01-06T07:02:18.262Z,-3.76
2019-01-06T07:05:07.319Z,-3.61
2019-01-06T07:07:54.501Z,-3.49
2019-01-06T07:10:59.768Z,-3.38
2019-01-06T07:14:08.169Z,-3.25
2019-01-06T07:17:36.340Z,-3.10
2019-01-06T07:20:33.069Z,-2.95
2019-01-06T07:23:29.230Z,-2.70
2019-01-06T07:26:18.277Z,-2.46
2019-01-06T07:29:26.928Z,-2.47
2019-01-06T07:32:29.436Z,-2.44
2019-01-06T07:35:18.250Z,-2.46
2019-01-06T07:38:08.620Z,-2.48
2019-01-06T07:41:13.933Z,-2.53
2019-01-06T07:44:04.256Z,-2.61
2019-01-06T07:46:53.370Z,-2.71
2019-01-06T07:49:50.187Z,-2.76
2019-01-06T07:52:52.648Z,-2.70
2019-01-06T07:55:48.946Z,-2.51
2019-01-06T07:58:37.933Z,-2.40
2019-01-06T08:01:46.492Z,-2.20
2019-01-06T08:04:36.454Z,-2.09
2019-01-06T08:07:29.819Z,-1.89
2019-01-06T08:10:19.951Z,-1.73
2019-01-06T08:13:01.631Z,-1.60
2019-01-06T08:15:52.396Z,-1.40
2019-01-06T08:18:54.557Z,-1.24
2019-01-06T08:22:05.997Z,-1.25
2019-01-06T08:24:54.873Z,-1.30
2019-01-06T08:27:50.937Z,-1.36
2019-01-06T08:30:39.892Z,-1.38
2019-01-06T08:33:39.947Z,-1.44
2019-01-06T08:36:28.656Z,-1.33
2019-01-06T08:39:18.878Z,-1.21
2019-01-06T08:42:07.871Z,-1.12
2019-01-06T08:45:15.803Z,-0.98
2019-01-06T08:48:04.821Z,-0.82
2019-01-06T08:50:54.285Z,-0.74
2019-01-06T08:53:47.683Z,-0.63
2019-01-06T08:56:36.537Z,-0.58
2019-01-06T08:59:23.624Z,-0.46
2019-01-06T09:02:12.643Z,-0.40
2019-01-06T09:05:21.138Z,-0.26
2019-01-06T09:08:17.189Z,-0.14
2019-01-06T09:11:26.004Z,-0.17
2019-01-06T09:14:25.272Z,-0.17
2019-01-06T09:17:14.225Z,-0.10
2019-01-06T09:20:03.130Z,-0.24
2019-01-06T09:22:56.211Z,-0.19
2019-01-06T09:26:00.011Z,-0.06
2019-01-06T09:28:56.264Z,-0.21
2019-01-06T09:31:46.569Z,-0.25
2019-01-06T09:34:42.979Z,-0.54
2019-01-06T09:37:40.150Z,-0.50
2019-01-06T09:40:36.435Z,-0.43
2019-01-06T09:43:25.301Z,-0.51
2019-01-06T09:46:14.169Z,-0.36
2019-01-06T09:49:10.258Z,-0.34
2019-01-06T09:52:01.422Z,-0.41
2019-01-06T09:55:03.997Z,-0.65
2019-01-06T09:57:54.341Z,-0.69
2019-01-06T10:00:43.446Z,-0.70
2019-01-06T10:03:52.120Z,-0.96
2019-01-06T10:06:48.540Z,-1.05
2019-01-06T10:09:37.554Z,-0.93
2019-01-06T10:12:27.661Z,-0.89
2019-01-06T10:15:26.182Z,-0.95
2019-01-06T10:18:19.720Z,-0.86
2019-01-06T10:21:16.128Z,-0.94
2019-01-06T10:24:06.132Z,-0.83
2019-01-06T10:27:01.012Z,-0.81
2019-01-06T10:30:03.306Z,-0.80
2019-01-06T10:32:59.071Z,-0.85
2019-01-06T10:35:49.486Z,-1.06
2019-01-06T10:38:52.618Z,-1.02
2019-01-06T10:41:49.372Z,-1.01
2019-01-06T10:44:54.749Z,-0.80
2019-01-06T10:47:52.422Z,-0.88
2019-01-06T10:50:50.092Z,-0.88
2019-01-06T10:53:52.556Z,-0.81
2019-01-06T10:56:41.759Z,-0.66
2019-01-06T10:59:30.866Z,-0.50
2019-01-06T11:02:33.577Z,-0.39
2019-01-06T11:05:22.842Z,-0.37
2019-01-06T11:08:11.711Z,-0.19
2019-01-06T11:11:00.999Z,-0.04
2019-01-06T11:14:00.673Z,0.09
2019-01-06T11:16:49.621Z,0.22
2019-01-06T11:19:39.964Z,0.24
2019-01-06T11:22:28.915Z,0.25
2019-01-06T11:25:18.215Z,-0.03
2019-01-06T11:28:07.015Z,-0.09
2019-01-06T11:30:55.878Z,-0.09
2019-01-06T11:34:04.443Z,-0.22
2019-01-06T11:36:51.641Z,-0.33
2019-01-06T11:39:42.988Z,-0.32
2019-01-06T11:42:46.071Z,-0.49
2019-01-06T11:45:35.169Z,-0.47
2019-01-06T11:48:33.705Z,-0.51
2019-01-06T11:51:22.775Z,-0.58
2019-01-06T11:54:31.999Z,-0.63
2019-01-06T11:57:21.480Z,-0.70
2019-01-06T12:00:18.619Z,-0.79
2019-01-06T12:03:13.367Z,-0.85
2019-01-06T12:06:02.752Z,-0.79
2019-01-06T12:09:01.127Z,-0.88
2019-01-06T12:12:04.669Z,-0.95
2019-01-06T12:14:56.107Z,-0.90
2019-01-06T12:17:55.269Z,-0.93
2019-01-06T12:20:44.073Z,-1.02
2019-01-06T12:23:36.001Z,-1.02
2019-01-06T12:26:31.146Z,-0.96
2019-01-06T12:29:30.348Z,-1.07
2019-01-06T12:32:26.897Z,-1.05
2019-01-06T12:35:29.353Z,-1.10
2019-01-06T12:38:20.085Z,-1.30
2019-01-06T12:41:09.113Z,-1.21
2019-01-06T12:43:57.973Z,-1.16
2019-01-06T12:46:47.190Z,-1.08
2019-01-06T12:49:38.298Z,-1.20
2019-01-06T12:52:37.533Z,-1.20
2019-01-06T12:55:29.518Z,-1.19
2019-01-06T12:58:20.892Z,-1.23
2019-01-06T13:01:17.279Z,-1.22
2019-01-06T13:04:19.578Z,-1.24
2019-01-06T13:07:08.584Z,-1.23
2019-01-06T13:10:05.148Z,-1.35
2019-01-06T13:13:13.827Z,-1.41
2019-01-06T13:16:07.964Z,-1.49
2019-01-06T13:18:58.215Z,-1.54
2019-01-06T13:21:56.068Z,-1.63
2019-01-06T13:24:55.801Z,-1.68
2019-01-06T13:27:44.872Z,-1.65
2019-01-06T13:30:35.064Z,-1.55
2019-01-06T13:33:28.273Z,-1.50
2019-01-06T13:36:18.051Z,-1.60
2019-01-06T13:39:13.493Z,-1.53
2019-01-06T13:42:21.755Z,-1.63
2019-01-06T13:45:22.990Z,-1.75
2019-01-06T13:48:22.399Z,-1.70
2019-01-06T13:51:11.202Z,-1.67
2019-01-06T13:54:07.563Z,-1.62
2019-01-06T13:56:56.369Z,-1.62
2019-01-06T13:59:55.454Z,-1.62
2019-01-06T14:02:57.788Z,-1.48
2019-01-06T14:05:46.794Z,-1.59
2019-01-06T14:08:35.814Z,-1.54
2019-01-06T14:11:24.946Z,-1.63
2019-01-06T14:14:21.132Z,-1.68
2019-01-06T14:17:11.322Z,-1.76
2019-01-06T14:20:00.980Z,-1.77
2019-01-06T14:22:53.186Z,-1.78
2019-01-06T14:26:10.366Z,-1.81
2019-01-06T14:28:59.260Z,-1.77
2019-01-06T14:31:49.528Z,-1.72
2019-01-06T14:34:38.239Z,-1.85
2019-01-06T14:37:27.387Z,-1.94
2019-01-06T14:40:18.566Z,-2.00
2019-01-06T14:43:08.900Z,-2.00
2019-01-06T14:45:59.221Z,-2.02
2019-01-06T14:48:47.621Z,-2.04
2019-01-06T14:51:31.701Z,-2.07
2019-01-06T14:54:34.008Z,-2.16
2019-01-06T14:57:33.566Z,-2.10
2019-01-06T15:00:32.061Z,-2.11
2019-01-06T15:03:34.830Z,-2.13
2019-01-06T15:06:40.075Z,-2.14
2019-01-06T15:09:30.242Z,-2.17
2019-01-06T15:12:23.616Z,-2.12
2019-01-06T15:15:11.167Z,-2.07
2019-01-06T15:18:02.578Z,-2.06
2019-01-06T15:21:05.113Z,-2.11
2019-01-06T15:23:50.121Z,-2.18
2019-01-06T15:26:46.572Z,-2.16
2019-01-06T15:29:51.710Z,-2.22
2019-01-06T15:32:41.684Z,-2.20
2019-01-06T15:35:44.077Z,-2.21
2019-01-06T15:38:25.692Z,-2.23
2019-01-06T15:41:17.707Z,-2.23
2019-01-06T15:44:09.606Z,-2.21
2019-01-06T15:47:05.783Z,-2.23
2019-01-06T15:50:11.226Z,-2.23
2019-01-06T15:53:16.434Z,-2.14
2019-01-06T15:56:06.630Z,-2.16
2019-01-06T15:59:02.788Z,-2.15
2019-01-06T16:01:52.302Z,-2.17
2019-01-06T16:04:51.944Z,-2.21
2019-01-06T16:07:45.251Z,-2.18
2019-01-06T16:10:35.507Z,-2.18
2019-01-06T16:13:31.849Z,-2.22
2019-01-06T16:16:28.124Z,-2.11
2019-01-06T16:19:18.480Z,-2.11
2019-01-06T16:22:08.752Z,-2.20
2019-01-06T16:24:57.180Z,-2.26
2019-01-06T16:27:59.498Z,-2.30
2019-01-06T16:30:55.593Z,-2.34
2019-01-06T16:33:55.226Z,-2.42
2019-01-06T16:37:00.547Z,-2.42
2019-01-06T16:39:50.908Z,-2.45
2019-01-06T16:42:39.873Z,-2.50
2019-01-06T16:45:28.783Z,-2.44
2019-01-06T16:48:17.609Z,-2.51
2019-01-06T16:51:10.581Z,-2.53
2019-01-06T16:54:10.020Z,-2.58
2019-01-06T16:56:58.647Z,-2.54
2019-01-06T16:59:58.003Z,-2.60
2019-01-06T17:03:03.563Z,-2.62
2019-01-06T17:05:56.889Z,-2.72
2019-01-06T17:08:39.108Z,-2.69
2019-01-06T17:11:35.510Z,-2.79
2019-01-06T17:14:22.854Z,-2.81
2019-01-06T17:17:21.990Z,-2.92
2019-01-06T17:20:21.677Z,-2.93
2019-01-06T17:23:17.887Z,-2.97
2019-01-06T17:26:14.074Z,-2.99
2019-01-06T17:29:03.210Z,-3.07
2019-01-06T17:31:56.525Z,-3.15
2019-01-06T17:34:49.701Z,-3.16
2019-01-06T17:37:42.965Z,-3.16
2019-01-06T17:40:36.293Z,-3.16
2019-01-06T17:43:26.562Z,-3.15
2019-01-06T17:46:25.801Z,-3.21
2019-01-06T17:49:19.131Z,-3.28
2019-01-06T17:52:20.445Z,-3.29
2019-01-06T17:55:09.416Z,-3.25
2019-01-06T17:58:05.672Z,-3.33
2019-01-06T18:00:49.341Z,-3.39
2019-01-06T18:03:41.741Z,-3.38
2019-01-06T18:06:40.871Z,-3.43
2019-01-06T18:09:36.347Z,-3.50
2019-01-06T18:12:29.254Z,-3.48
2019-01-06T18:15:31.837Z,-3.48
2019-01-06T18:18:20.887Z,-3.60
2019-01-06T18:21:09.827Z,-3.55
2019-01-06T18:24:12.476Z,-3.57
2019-01-06T18:27:08.650Z,-3.66
2019-01-06T18:30:14.254Z,-3.66
2019-01-06T18:32:59.416Z,-3.69
2019-01-06T18:35:48.283Z,-3.66
2019-01-06T18:38:37.245Z,-3.69
2019-01-06T18:41:30.568Z,-3.74
2019-01-06T18:44:27.954Z,-3.78
2019-01-06T18:47:15.270Z,-3.79
2019-01-06T18:50:08.598Z,-3.75
2019-01-06T18:52:57.663Z,-3.77
2019-01-06T18:56:06.365Z,-3.81
2019-01-06T18:59:02.577Z,-3.88
2019-01-06T19:01:58.875Z,-3.90
2019-01-06T19:05:01.510Z,-3.90
2019-01-06T19:07:48.171Z,-3.88
2019-01-06T19:10:36.913Z,-3.98
2019-01-06T19:13:25.983Z,-4.01
2019-01-06T19:16:14.975Z,-4.06
2019-01-06T19:19:03.817Z,-4.09
2019-01-06T19:22:01.752Z,-4.13
2019-01-06T19:24:58.119Z,-4.16
2019-01-06T19:27:47.157Z,-4.14
2019-01-06T19:30:49.525Z,-4.14
2019-01-06T19:33:42.575Z,-4.17
2019-01-06T19:36:31.250Z,-4.23
2019-01-06T19:39:27.430Z,-4.23
2019-01-06T19:42:33.614Z,-4.26
2019-01-06T19:45:23.885Z,-4.21
2019-01-06T19:48:14.090Z,-4.20
2019-01-06T19:51:03.182Z,-4.26
2019-01-06T19:53:52.089Z,-4.26
2019-01-06T19:57:00.419Z,-4.19
2019-01-06T20:00:06.396Z,-4.21
2019-01-06T20:02:59.363Z,-4.16
2019-01-06T20:05:46.976Z,-4.20
2019-01-06T20:08:35.991Z,-4.18
2019-01-06T20:11:38.379Z,-4.17
2019-01-06T20:14:46.949Z,-4.21
2019-01-06T20:17:37.080Z,-4.28
2019-01-06T20:20:24.871Z,-4.27
2019-01-06T20:23:22.806Z,-4.31
2019-01-06T20:26:12.951Z,-4.34
2019-01-06T20:29:14.951Z,-4.37
2019-01-06T20:32:04.843Z,-4.34
2019-01-06T20:34:54.201Z,-4.42
2019-01-06T20:37:47.937Z,-4.49
2019-01-06T20:40:38.067Z,-4.56
2019-01-06T20:43:46.278Z,-4.54
2019-01-06T20:46:34.880Z,-4.58
2019-01-06T20:49:37.106Z,-4.57
2019-01-06T20:52:30.437Z,-4.52
2019-01-06T20:55:26.639Z,-4.65
2019-01-06T20:58:31.309Z,-4.60
2019-01-06T21:01:20.279Z,-4.58
2019-01-06T21:04:28.739Z,-4.51
2019-01-06T21:07:25.177Z,-4.57
2019-01-06T21:10:14.344Z,-4.57
2019-01-06T21:13:19.501Z,-4.52
2019-01-06T21:16:13.042Z,-4.56
2019-01-06T21:19:09.290Z,-4.56
2019-01-06T21:22:08.322Z,-4.64
2019-01-06T21:24:57.260Z,-4.68
2019-01-06T21:27:50.520Z,-4.70
2019-01-06T21:30:39.601Z,-4.76
2019-01-06T21:33:38.070Z,-4.85
2019-01-06T21:36:28.347Z,-4.88
2019-01-06T21:39:27.869Z,-4.95
2019-01-06T21:42:27.257Z,-5.02
2019-01-06T21:45:17.588Z,-5.08
2019-01-06T21:48:13.839Z,-5.11
2019-01-06T21:51:16.329Z,-5.10
2019-01-06T21:54:10.768Z,-5.12
2019-01-06T21:57:06.691Z,-5.07
2019-01-06T21:59:55.529Z,-5.09
2019-01-06T22:02:45.260Z,-5.06
2019-01-06T22:05:43.597Z,-5.07
2019-01-06T22:08:32.655Z,-5.04
2019-01-06T22:11:31.761Z,-5.04
2019-01-06T22:14:28.259Z,-5.02
2019-01-06T22:17:35.297Z,-5.08
2019-01-06T22:20:24.500Z,-5.03
2019-01-06T22:23:23.711Z,-5.05
2019-01-06T22:26:28.921Z,-5.15
2019-01-06T22:29:22.647Z,-5.15
2019-01-06T22:32:14.167Z,-5.09
2019-01-06T22:35:03.115Z,-5.18
2019-01-06T22:38:05.520Z,-5.16
2019-01-06T22:41:01.558Z,-5.13
2019-01-06T22:43:50.354Z,-5.14
2019-01-06T22:46:41.966Z,-5.07
2019-01-06T22:49:32.317Z,-5.07
2019-01-06T22:52:21.100Z,-5.08
2019-01-06T22:55:10.096Z,-5.10
2019-01-06T22:58:00.514Z,-5.13
2019-01-06T23:01:01.129Z,-5.11
2019-01-06T23:04:09.494Z,-5.10
2019-01-06T23:07:05.716Z,-5.01
2019-01-06T23:10:05.130Z,-5.12
2019-01-06T23:12:54.079Z,-5.12
2019-01-06T23:15:59.281Z,-5.14
2019-01-06T23:18:49.656Z,-5.17
2019-01-06T23:21:42.499Z,-5.20
2019-01-06T23:24:31.424Z,-5.15
2019-01-06T23:27:34.558Z,-5.17
2019-01-06T23:30:24.259Z,-5.18
2019-01-06T23:33:13.232Z,-5.20
2019-01-06T23:36:02.170Z,-5.26
2019-01-06T23:38:51.176Z,-5.26
2019-01-06T23:41:40.304Z,-5.24
2019-01-06T23:44:33.619Z,-5.23
2019-01-06T23:47:15.595Z,-5.24
2019-01-06T23:49:56.451Z,-5.23
2019-01-06T23:52:45.338Z,-5.22
2019-01-06T23:55:47.624Z,-5.16
2019-01-06T23:58:56.297Z,-5.15
